Decoded Metar for FMSD (TOLAGNARO in MADAGASCAR) (IATA:FTU) | Meteo·Mobile Aviation Weather
aviador You're here:

FMSD Decoded Metar

TOLAGNARO in MADAGASCAR
Report Time2019-10-22 13:00:00
UTC Time2019-10-22 13:42:24
Flight Rules vfr VFR
Wind240° at 14 kt
W.Decomp.*RWY 26: 14.0 kt HW 0.5 kt RCW
Visibility9999 m
Phenomena:N/A
Clouds:N/A
Expected CloudBase > 2,400 ft AGL from Temp-Dew spread
CeilingNone
Temp28°C (ISA +13)
Dew Point22°C (70% RH)
Heat Index30.7°C
AAT27.7°C
QNH1012 hPa
Density Alt1,913 ft
Elevation30 ft
Report Wrong Elevation
Raw Report
METAR FMSD 221300Z 24014KT CAVOK 28/22 Q1012=####018000631####
SAUS20 KNKA 221312

Extra information for FMSD:More info

Metar Taf Metar & Taf Last 4 Metars F.Rules Stats Wind Profile Meteogram Temp Stats Airport Information Weather charts Add Link Nearby VenuesMetar ALERT Operation Metar Decoded Social comments